Weather reports worldwide

Advertisment
Huercal Overa, Spain (8428): temperature & dewpoint: 24.10.2020 11:00:00 - 30.10.2020 11:00:00 (CET)Huercal Overa, Spain (8428): wind speed & gusts: 24.10.2020 11:00:00 - 30.10.2020 11:00:00 (CET)Huercal Overa, Spain (8428): wind direction: 24.10.2020 11:00:00 - 30.10.2020 11:00:00 (CET)Huercal Overa, Spain (8428): reduced air pressure: 24.10.2020 11:00:00 - 30.10.2020 11:00:00 (CET)Huercal Overa, Spain (8428): precipitation: 24.10.2020 11:00:00 - 30.10.2020 11:00:00 (CET)
Date & Time tt [°C] td [°C] ff [km/h] ff [kn] fx [km/h] fx [kn] dd ppp [hPa] rr [mm]
30.10.2020 11:00:00 - - - - - - - - -
30.10.2020 10:00:00 19,9 4,8 0 0 3 2 S 1026,0 0,0
30.10.2020 09:00:00 16,2 6,4 0 0 2 1 N 1026,5 0,0
30.10.2020 08:00:00 10,8 7,4 1 1 4 2 NE 1026,8 0,0
30.10.2020 07:00:00 9,7 6,5 1 0 6 3 ENE 1027,1 -
30.10.2020 06:00:00 10,0 6,8 2 1 4 2 ENE 1027,1 0,0
30.10.2020 05:00:00 10,5 7,4 0 0 5 3 ENE 1027,0 0,0
30.10.2020 04:00:00 10,8 7,3 0 0 3 2 E 1027,3 0,0
30.10.2020 03:00:00 11,1 7,4 0 0 0 0 N 1027,1 0,0
30.10.2020 02:00:00 11,6 7,8 0 0 0 0 N 1027,4 0,0
30.10.2020 01:00:00 12,2 8,5 0 0 4 2 NNE 1027,4 -
30.10.2020 00:00:00 12,7 8,1 0 0 4 2 E 1027,6 0,0
29.10.2020 23:00:00 13,4 8,4 0 0 6 4 N 1027,6 0,0
29.10.2020 22:00:00 14,0 9,0 0 0 0 0 N 1027,5 0,0
29.10.2020 21:00:00 15,1 9,0 0 0 0 0 N 1027,0 0,0
29.10.2020 20:00:00 16,0 9,4 0 0 6 3 N 1026,6 0,0
29.10.2020 19:00:00 - - - - - - - - -
29.10.2020 18:00:00 19,1 9,3 4 2 17 9 SSW 1024,8 0,0
29.10.2020 17:00:00 20,0 8,9 11 6 22 12 SSW 1024,4 0,0
29.10.2020 16:00:00 21,2 10,0 11 6 25 14 SSW 1024,4 0,0
29.10.2020 15:00:00 21,1 9,9 13 7 23 12 SSW 1024,0 0,0
29.10.2020 14:00:00 21,1 8,7 14 8 22 12 SSW 1024,8 0,0
29.10.2020 13:00:00 22,7 5,6 10 6 17 9 SSW 1025,3 -
29.10.2020 12:00:00 23,2 6,1 6 3 13 7 ESE 1025,9 0,0
29.10.2020 11:00:00 21,4 5,8 4 2 8 5 SSW 1026,3 0,0
29.10.2020 10:00:00 21,9 6,5 0 0 3 2 SSE 1025,4 0,0
29.10.2020 09:00:00 16,3 6,4 1 1 5 3 WNW 1025,8 0,0
29.10.2020 08:00:00 11,3 5,6 1 0 7 4 NE 1026,4 0,0
29.10.2020 07:00:00 10,0 4,3 4 2 6 3 E 1026,2 -
29.10.2020 06:00:00 10,4 4,3 0 0 5 3 N 1025,8 0,0
29.10.2020 05:00:00 10,9 3,9 1 1 5 3 ENE 1025,2 0,0
29.10.2020 04:00:00 11,2 3,4 3 2 7 4 E 1024,6 0,0
29.10.2020 03:00:00 11,7 3,2 1 1 6 3 E 1024,7 0,0
29.10.2020 02:00:00 11,7 2,9 0 0 0 0 N 1024,7 0,0
29.10.2020 01:00:00 12,3 3,0 0 0 4 2 N 1024,7 -
29.10.2020 00:00:00 12,5 2,9 1 1 6 3 ENE 1024,8 0,0
28.10.2020 23:00:00 13,5 2,7 0 0 5 3 N 1024,7 0,0
28.10.2020 22:00:00 13,9 2,5 0 0 5 3 N 1024,4 0,0
28.10.2020 21:00:00 15,0 1,5 0 0 6 3 NW 1023,7 0,0
28.10.2020 20:00:00 15,9 1,3 1 1 8 4 NW 1023,0 0,0
28.10.2020 19:00:00 17,2 1,3 1 0 6 4 NE 1022,2 -
28.10.2020 18:00:00 18,7 1,3 4 2 14 7 W 1021,2 0,0
28.10.2020 17:00:00 20,4 1,7 8 4 19 10 SSW 1020,4 0,0
28.10.2020 16:00:00 21,0 1,3 12 6 21 11 SSW 1020,2 0,0
28.10.2020 15:00:00 20,8 1,1 12 6 22 12 SSW 1019,9 0,0
28.10.2020 14:00:00 21,6 -1,7 8 4 17 9 SSW 1020,1 0,0
28.10.2020 13:00:00 24,9 -2,0 2 1 10 6 NE 1020,1 -
28.10.2020 12:00:00 24,0 -1,7 2 1 8 5 WSW 1020,7 0,0
28.10.2020 11:00:00 21,3 -0,7 1 1 8 5 ESE 1021,5 0,0
28.10.2020 10:00:00 17,5 -0,3 1 1 5 3 SSE 1021,5 0,0
28.10.2020 09:00:00 14,3 1,3 0 0 0 0 N 1022,4 0,0
28.10.2020 08:00:00 9,4 0,0 0 0 3 2 N 1021,7 0,0
28.10.2020 07:00:00 8,6 -0,5 1 1 5 3 E 1021,5 -
28.10.2020 06:00:00 8,1 1,5 4 2 5 3 ENE 1020,9 0,0
28.10.2020 05:00:00 8,7 2,1 1 0 8 5 E 1020,5 0,0
28.10.2020 04:00:00 8,2 2,7 1 1 9 5 NNE 1020,3 0,0
28.10.2020 03:00:00 9,1 2,5 3 1 6 3 E 1020,4 0,0
28.10.2020 02:00:00 9,7 0,6 0 0 4 2 NNW 1020,6 0,0
28.10.2020 01:00:00 9,8 5,8 1 1 6 3 W 1020,9 -
28.10.2020 00:00:00 10,4 6,4 0 0 5 3 N 1020,9 0,0
27.10.2020 23:00:00 11,3 6,4 0 0 4 2 NE 1021,1 0,0
27.10.2020 22:00:00 11,6 7,1 0 0 6 4 E 1020,7 0,0
27.10.2020 21:00:00 12,6 7,7 0 0 5 3 N 1020,2 0,0
27.10.2020 20:00:00 13,5 7,4 3 1 6 4 ENE 1019,7 0,0
27.10.2020 19:00:00 14,3 7,8 2 1 9 5 W 1019,4 -
27.10.2020 18:00:00 15,6 6,5 6 3 16 9 SSW 1018,6 0,0
27.10.2020 17:00:00 17,0 6,5 7 4 15 8 SSW 1018,1 0,0
27.10.2020 16:00:00 16,8 3,8 8 5 21 11 SSW 1018,2 0,0
27.10.2020 15:00:00 18,1 3,2 11 6 25 14 SSW 1018,2 0,0
27.10.2020 14:00:00 19,1 2,5 10 6 24 13 SSW 1018,4 0,0
27.10.2020 13:00:00 18,6 -3,0 14 8 26 14 SSW 1019,8 -
27.10.2020 12:00:00 18,7 -1,2 14 8 28 15 W 1020,2 0,0
27.10.2020 11:00:00 15,6 -0,3 10 6 24 13 WSW 1020,6 0,0
27.10.2020 10:00:00 14,1 0,6 16 8 23 13 WSW 1021,7 0,0
27.10.2020 09:00:00 12,9 0,9 3 1 13 7 SSW 1021,9 0,0
27.10.2020 08:00:00 9,9 0,0 4 2 11 6 S 1021,5 0,0
27.10.2020 07:00:00 9,4 -0,3 8 4 19 10 W 1021,3 -
27.10.2020 06:00:00 10,2 0,2 3 2 9 5 S 1021,1 0,0
27.10.2020 05:00:00 9,6 -0,3 2 1 17 9 E 1020,9 0,0
27.10.2020 04:00:00 10,0 -0,3 2 1 8 5 WSW 1020,8 0,0
27.10.2020 03:00:00 10,4 -0,5 3 2 8 5 WSW 1021,3 0,0
27.10.2020 02:00:00 11,1 -0,5 3 1 11 6 WNW 1021,5 0,0
27.10.2020 01:00:00 11,5 -0,3 4 2 21 11 WSW 1021,7 -
27.10.2020 00:00:00 12,4 -0,3 4 2 14 7 WNW 1021,7 0,0
26.10.2020 23:00:00 12,6 0,0 4 2 10 5 NNW 1022,0 0,0
26.10.2020 22:00:00 12,5 -1,2 0 0 9 5 W 1021,5 0,0
26.10.2020 21:00:00 13,2 -1,4 2 1 11 6 NW 1021,2 0,0
26.10.2020 20:00:00 14,0 -2,0 9 5 21 11 WNW 1020,7 0,0
26.10.2020 19:00:00 15,5 -2,0 17 9 36 19 WNW 1019,4 -
26.10.2020 18:00:00 16,9 -2,7 13 7 38 20 WNW 1018,0 0,0
26.10.2020 17:00:00 18,1 -2,2 19 11 37 20 NNW 1017,1 0,0
26.10.2020 16:00:00 19,2 -2,0 20 11 45 24 WNW 1016,8 0,0
26.10.2020 15:00:00 18,6 -2,0 27 15 55 30 WNW 1016,1 0,0
26.10.2020 14:00:00 18,2 -1,2 29 16 59 32 W 1016,1 0,0
26.10.2020 13:00:00 17,6 -0,7 28 15 54 29 WNW 1016,8 -
26.10.2020 12:00:00 16,9 -0,3 33 18 93 50 WNW 1017,7 0,0
26.10.2020 11:00:00 16,8 0,9 30 16 52 28 WNW 1017,6 0,0
26.10.2020 10:00:00 16,1 1,7 15 8 39 21 NW 1017,2 0,0
26.10.2020 09:00:00 14,2 1,1 16 8 29 16 NNW 1017,8 0,0
26.10.2020 08:00:00 14,4 1,9 7 4 45 24 NW 1016,6 0,0
26.10.2020 07:00:00 15,2 2,1 22 12 44 24 WNW 1015,1 -
26.10.2020 06:00:00 15,4 3,8 5 3 42 23 NW 1014,8 0,0
26.10.2020 05:00:00 16,5 6,1 23 12 51 27 WNW 1013,5 0,0
26.10.2020 04:00:00 16,6 5,5 6 3 15 8 NE 1012,9 0,0
26.10.2020 03:00:00 16,0 4,3 2 1 11 6 SSE 1012,2 0,0
26.10.2020 02:00:00 16,3 4,6 5 3 13 7 SSW 1012,5 0,0
26.10.2020 01:00:00 17,1 4,5 8 4 17 9 WNW 1013,1 -
26.10.2020 00:00:00 15,8 3,2 3 1 11 6 WSW 1014,5 0,0
25.10.2020 23:00:00 16,9 2,5 9 5 31 17 W 1015,3 0,0
25.10.2020 22:00:00 17,3 4,3 3 2 24 13 W 1015,2 0,0
25.10.2020 21:00:00 18,3 3,4 13 7 27 14 W 1015,0 0,0
25.10.2020 20:00:00 17,8 5,8 1 0 9 5 NW 1014,9 0,0
25.10.2020 19:00:00 19,2 5,3 5 3 14 8 NE 1014,6 -
25.10.2020 18:00:00 21,4 3,0 10 5 18 10 SSW 1013,9 0,0
25.10.2020 17:00:00 23,5 2,3 10 6 19 10 SSW 1013,7 0,0
25.10.2020 16:00:00 23,6 1,9 9 5 18 10 SW 1014,1 0,0
25.10.2020 15:00:00 23,4 1,7 8 4 26 14 S 1014,2 0,0
25.10.2020 14:00:00 22,3 0,6 15 8 28 15 SSW 1015,5 0,0
25.10.2020 13:00:00 22,6 -0,3 12 6 23 13 SSW 1016,5 -
25.10.2020 12:00:00 22,4 -0,5 6 4 18 10 WSW 1017,7 0,0
25.10.2020 11:00:00 20,8 2,1 2 1 6 4 S 1018,9 0,0
25.10.2020 10:00:00 17,1 4,1 3 1 6 3 ESE 1019,5 0,0
25.10.2020 09:00:00 13,2 4,1 2 1 6 4 E 1020,9 0,0
25.10.2020 08:00:00 9,3 4,5 3 2 7 4 ENE 1020,6 0,0
25.10.2020 07:00:00 8,5 4,3 4 2 10 5 ENE 1021,2 -
25.10.2020 06:00:00 9,3 5,1 1 1 6 4 E 1021,4 0,0
25.10.2020 05:00:00 9,4 5,0 3 2 7 4 E 1021,6 0,0
25.10.2020 04:00:00 10,5 5,6 0 0 3 2 N 1021,7 0,0
25.10.2020 03:00:00 11,6 5,9 1 1 5 3 ESE 1021,9 0,0
25.10.2020 02:00:00 14,3 6,4 1 0 10 6 S 1022,3 0,0
25.10.2020 01:00:00 - - - - - - - - -
25.10.2020 00:00:00 15,2 6,5 2 1 14 8 SSW 1023,6 0,0
24.10.2020 23:00:00 15,2 6,5 3 1 10 6 SSW 1023,7 0,0
24.10.2020 22:00:00 13,7 6,5 0 0 8 4 N 1023,9 0,0
24.10.2020 21:00:00 14,8 6,1 1 0 5 3 NNE 1023,7 0,0
24.10.2020 20:00:00 15,8 5,9 0 0 12 7 E 1023,3 0,0
24.10.2020 19:00:00 16,7 5,9 8 4 13 7 ENE 1022,9 -
24.10.2020 18:00:00 20,0 4,1 1 1 13 7 SSW 1022,2 0,0
24.10.2020 17:00:00 20,6 3,2 6 3 19 10 SSW 1022,0 0,0
24.10.2020 16:00:00 20,3 3,4 11 6 26 14 SSW 1022,3 0,0
24.10.2020 15:00:00 20,9 3,0 13 7 27 14 SSW 1022,2 0,0
24.10.2020 14:00:00 21,3 2,5 14 8 26 14 SSW 1023,1 0,0
24.10.2020 13:00:00 - - - - - - - - -
24.10.2020 12:00:00 20,7 2,1 10 6 20 11 SW 1025,0 0,0
24.10.2020 11:00:00 20,6 3,2 5 3 19 10 WNW 1025,4 0,0

tt = temperature
td = dewpoint
ff = wind speed
fx = gusts
dd = wind direction
ppp = reduced air pressure
rr = precipitation

Next stations